createdAt,value
2022-09-07T00:01:30.673Z,18.20
2022-09-07T00:04:00.759Z,18.10
2022-09-07T00:06:29.356Z,18.10
2022-09-07T00:08:59.702Z,18.10
2022-09-07T00:11:28.056Z,18.10
2022-09-07T00:13:56.951Z,18.10
2022-09-07T00:16:28.082Z,18.00
2022-09-07T00:18:57.323Z,18.00
2022-09-07T00:21:27.490Z,18.00
2022-09-07T00:23:56.530Z,18.00
2022-09-07T00:26:26.862Z,18.00
2022-09-07T00:28:59.035Z,18.00
2022-09-07T00:31:28.298Z,18.00
2022-09-07T00:34:00.045Z,17.90
2022-09-07T00:36:29.756Z,17.90
2022-09-07T00:38:58.590Z,17.90
2022-09-07T00:41:26.945Z,17.90
2022-09-07T00:43:56.916Z,17.80
2022-09-07T00:46:27.884Z,17.80
2022-09-07T00:49:00.958Z,17.80
2022-09-07T00:51:34.744Z,17.80
2022-09-07T00:54:07.462Z,17.80
2022-09-07T00:56:41.163Z,17.70
2022-09-07T00:59:10.784Z,17.70
2022-09-07T01:01:39.606Z,17.70
2022-09-07T01:04:09.352Z,17.70
2022-09-07T01:06:42.491Z,17.60
2022-09-07T01:09:17.930Z,17.60
2022-09-07T01:11:51.130Z,17.60
2022-09-07T01:14:23.732Z,17.60
2022-09-07T01:17:11.595Z,17.60
2022-09-07T01:20:17.349Z,17.60
2022-09-07T01:23:22.077Z,17.60
2022-09-07T01:26:05.771Z,17.60
2022-09-07T01:28:36.739Z,17.60
2022-09-07T01:31:18.391Z,17.50
2022-09-07T01:33:56.511Z,17.60
2022-09-07T01:36:31.365Z,17.60
2022-09-07T01:39:02.636Z,17.50
2022-09-07T01:41:34.025Z,17.50
2022-09-07T01:44:09.140Z,17.50
2022-09-07T01:46:43.810Z,17.50
2022-09-07T01:49:17.958Z,17.50
2022-09-07T01:51:49.396Z,17.50
2022-09-07T01:54:24.122Z,17.50
2022-09-07T01:56:58.135Z,17.50
2022-09-07T01:59:34.407Z,17.50
2022-09-07T02:02:06.906Z,17.50
2022-09-07T02:04:39.587Z,17.50
2022-09-07T02:07:14.032Z,17.50
2022-09-07T02:09:46.464Z,17.50
2022-09-07T02:12:21.102Z,17.40
2022-09-07T02:14:57.766Z,17.40
2022-09-07T02:17:30.970Z,17.40
2022-09-07T02:20:04.873Z,17.40
2022-09-07T02:22:38.842Z,17.40
2022-09-07T02:25:11.367Z,17.30
2022-09-07T02:27:45.327Z,17.30
2022-09-07T02:30:15.922Z,17.30
2022-09-07T02:32:44.753Z,17.40
2022-09-07T02:35:14.333Z,17.40
2022-09-07T02:37:48.265Z,17.40
2022-09-07T02:40:16.571Z,17.40
2022-09-07T02:42:48.884Z,17.40
2022-09-07T02:45:19.417Z,17.40
2022-09-07T02:48:12.337Z,17.40
2022-09-07T02:50:54.201Z,17.40
2022-09-07T02:54:01.341Z,17.40
2022-09-07T02:56:44.063Z,17.40
2022-09-07T02:59:25.148Z,17.40
2022-09-07T03:02:01.739Z,17.50
2022-09-07T03:04:46.725Z,17.40
2022-09-07T03:07:17.619Z,17.40
2022-09-07T03:09:49.607Z,17.40
2022-09-07T03:12:17.986Z,17.40
2022-09-07T03:14:48.198Z,17.30
2022-09-07T03:17:18.280Z,17.30
2022-09-07T03:19:46.571Z,17.30
2022-09-07T03:22:15.013Z,17.30
2022-09-07T03:24:45.392Z,17.30
2022-09-07T03:27:16.922Z,17.30
2022-09-07T03:29:45.411Z,17.20
2022-09-07T03:32:15.480Z,17.20
2022-09-07T03:34:48.813Z,17.20
2022-09-07T03:37:19.924Z,17.20
2022-09-07T03:39:50.014Z,17.20
2022-09-07T03:42:28.957Z,17.20
2022-09-07T03:45:11.498Z,17.20
2022-09-07T03:47:41.442Z,17.10
2022-09-07T03:50:12.993Z,17.10
2022-09-07T03:55:31.590Z,17.20
2022-09-07T03:58:01.887Z,17.10
2022-09-07T04:00:30.210Z,17.20
2022-09-07T04:03:02.634Z,17.10
2022-09-07T04:05:39.459Z,17.10
2022-09-07T04:08:07.930Z,17.10
2022-09-07T04:10:39.241Z,17.20
2022-09-07T04:13:09.517Z,17.20
2022-09-07T04:15:37.954Z,17.20
2022-09-07T04:18:06.476Z,17.20
2022-09-07T04:20:41.864Z,17.20
2022-09-07T04:23:10.129Z,17.10
2022-09-07T04:25:38.422Z,17.20
2022-09-07T04:28:06.813Z,17.20
2022-09-07T04:30:36.511Z,17.20
2022-09-07T04:33:05.006Z,17.20
2022-09-07T04:35:49.291Z,17.20
2022-09-07T04:38:18.020Z,17.10
2022-09-07T04:40:46.681Z,17.10
2022-09-07T04:43:15.122Z,17.20
2022-09-07T04:45:45.683Z,17.20
2022-09-07T04:48:15.634Z,17.20
2022-09-07T04:50:45.439Z,17.20
2022-09-07T04:53:16.714Z,17.20
2022-09-07T04:55:48.750Z,17.30
2022-09-07T04:58:17.218Z,17.30
2022-09-07T05:00:45.819Z,17.20
2022-09-07T05:03:14.084Z,17.40
2022-09-07T05:05:42.302Z,17.50
2022-09-07T05:08:12.117Z,17.50
2022-09-07T05:10:40.433Z,17.60
2022-09-07T05:13:11.059Z,17.60
2022-09-07T05:15:42.937Z,17.70
2022-09-07T05:18:14.837Z,17.80
2022-09-07T05:20:43.179Z,17.80
2022-09-07T05:23:12.764Z,17.90
2022-09-07T05:25:45.083Z,18.00
2022-09-07T05:28:18.592Z,18.00
2022-09-07T05:36:28.762Z,18.20
2022-09-07T05:38:59.719Z,18.30
2022-09-07T05:41:28.422Z,18.30
2022-09-07T05:47:04.358Z,18.50
2022-09-07T05:49:38.131Z,18.50
2022-09-07T05:52:08.981Z,18.60
2022-09-07T05:55:28.218Z,18.60
2022-09-07T05:57:55.336Z,18.60
2022-09-07T06:00:23.850Z,18.90
2022-09-07T06:03:16.044Z,19.00
2022-09-07T06:08:26.664Z,19.30
2022-09-07T06:10:57.345Z,19.40
2022-09-07T06:13:31.652Z,19.60
2022-09-07T06:16:27.252Z,19.70
2022-09-07T06:18:58.210Z,19.90
2022-09-07T06:21:30.918Z,20.10
2022-09-07T06:23:59.517Z,20.20
2022-09-07T06:26:29.630Z,20.30
2022-09-07T06:28:58.193Z,20.40
2022-09-07T06:31:29.385Z,20.50
2022-09-07T06:33:59.023Z,20.50
2022-09-07T06:36:31.803Z,20.50
2022-09-07T06:39:02.894Z,20.60
2022-09-07T06:44:31.397Z,20.70
2022-09-07T06:49:29.765Z,20.80
2022-09-07T06:51:58.243Z,20.90
2022-09-07T06:57:16.227Z,21.00
2022-09-07T06:59:44.692Z,21.00
2022-09-07T07:02:15.484Z,21.20
2022-09-07T07:04:44.001Z,21.30
2022-09-07T07:07:29.601Z,21.40
2022-09-07T07:09:57.961Z,21.50
2022-09-07T07:15:06.483Z,21.80
2022-09-07T07:17:34.684Z,21.80
2022-09-07T07:20:05.297Z,21.90
2022-09-07T07:22:49.170Z,22.00
2022-09-07T07:25:17.626Z,22.20
2022-09-07T07:27:47.269Z,22.20
2022-09-07T07:30:16.379Z,22.30
2022-09-07T07:32:45.439Z,22.30
2022-09-07T07:35:16.534Z,22.40
2022-09-07T07:37:48.150Z,22.50
2022-09-07T07:40:20.394Z,22.60
2022-09-07T07:42:53.297Z,22.70
2022-09-07T07:48:13.941Z,22.80
2022-09-07T07:51:06.465Z,22.80
2022-09-07T07:53:41.830Z,22.90
2022-09-07T07:56:12.157Z,22.90
2022-09-07T07:58:45.626Z,22.90
2022-09-07T08:01:15.663Z,23.00
2022-09-07T08:03:46.900Z,23.20
2022-09-07T08:06:17.869Z,23.30
2022-09-07T08:08:46.687Z,23.30
2022-09-07T08:11:17.462Z,23.30
2022-09-07T08:13:49.679Z,23.60
2022-09-07T08:16:21.360Z,23.70
2022-09-07T08:18:49.901Z,23.70
2022-09-07T08:21:18.652Z,23.80
2022-09-07T08:23:48.995Z,24.00
2022-09-07T08:26:19.251Z,24.10
2022-09-07T08:28:51.165Z,24.20
2022-09-07T08:31:19.564Z,24.30
2022-09-07T08:33:50.310Z,24.40
2022-09-07T08:36:21.900Z,24.50
2022-09-07T08:38:52.264Z,24.60
2022-09-07T08:41:53.496Z,24.60
2022-09-07T08:44:26.865Z,24.70
2022-09-07T08:47:03.556Z,24.80
2022-09-07T08:49:43.661Z,24.90
2022-09-07T08:52:15.410Z,25.00
2022-09-07T08:54:56.466Z,25.10
2022-09-07T08:57:30.876Z,25.20
2022-09-07T09:00:08.688Z,25.30
2022-09-07T09:02:46.000Z,25.50
2022-09-07T09:05:29.314Z,25.60
2022-09-07T09:08:11.714Z,25.80
2022-09-07T09:10:47.999Z,26.00
2022-09-07T09:13:20.436Z,26.20
2022-09-07T09:15:59.697Z,26.40
2022-09-07T09:18:48.369Z,26.60
2022-09-07T09:21:18.804Z,26.70
2022-09-07T09:23:55.831Z,26.90
2022-09-07T09:26:28.983Z,27.10
2022-09-07T09:29:12.818Z,27.30
2022-09-07T09:31:42.915Z,27.50
2022-09-07T09:34:20.379Z,27.70
2022-09-07T09:36:55.254Z,27.80
2022-09-07T09:39:36.882Z,27.80
2022-09-07T09:42:27.877Z,27.80
2022-09-07T09:45:04.781Z,28.10
2022-09-07T09:47:37.547Z,28.20
2022-09-07T09:50:11.136Z,28.40
2022-09-07T09:52:49.360Z,28.60
2022-09-07T09:55:35.331Z,28.70
2022-09-07T10:01:28.092Z,28.80
2022-09-07T10:04:01.533Z,28.80
2022-09-07T10:06:34.458Z,28.90
2022-09-07T10:09:03.602Z,28.80
2022-09-07T10:14:34.406Z,28.90
2022-09-07T10:17:11.551Z,28.90
2022-09-07T10:19:44.985Z,28.80
2022-09-07T10:22:32.415Z,28.80
2022-09-07T10:25:01.955Z,28.80
2022-09-07T10:27:36.793Z,28.70
2022-09-07T10:30:13.553Z,28.60
2022-09-07T10:32:54.423Z,28.60
2022-09-07T10:35:52.426Z,28.70
2022-09-07T10:38:33.999Z,28.50
2022-09-07T10:41:08.511Z,28.40
2022-09-07T10:43:44.652Z,28.40
2022-09-07T10:49:30.673Z,28.40
2022-09-07T10:52:15.753Z,28.20
2022-09-07T10:54:52.655Z,28.20
2022-09-07T10:57:32.997Z,28.50
2022-09-07T11:00:11.675Z,28.30
2022-09-07T11:06:17.898Z,28.70
2022-09-07T11:09:26.392Z,28.90
2022-09-07T11:15:05.094Z,29.60
2022-09-07T11:17:43.163Z,29.80
2022-09-07T11:20:24.769Z,29.90
2022-09-07T11:23:16.555Z,30.00
2022-09-07T11:26:03.365Z,30.10
2022-09-07T11:28:47.989Z,30.00
2022-09-07T11:31:28.742Z,29.80
2022-09-07T11:37:23.398Z,29.80
2022-09-07T11:40:05.462Z,29.70
2022-09-07T11:42:48.313Z,29.70
2022-09-07T11:45:23.495Z,29.70
2022-09-07T11:48:04.244Z,29.80
2022-09-07T11:50:38.479Z,29.90
2022-09-07T11:53:22.723Z,30.50
2022-09-07T11:56:01.399Z,31.10
2022-09-07T11:59:09.264Z,31.60
2022-09-07T12:02:58.219Z,32.00
2022-09-07T12:06:15.092Z,32.20
2022-09-07T12:09:11.987Z,32.50
2022-09-07T12:15:21.026Z,33.90
2022-09-07T12:18:22.734Z,34.00
2022-09-07T12:24:06.076Z,33.60
2022-09-07T12:27:05.407Z,33.00
2022-09-07T12:29:37.275Z,32.20
2022-09-07T12:35:38.996Z,31.10
2022-09-07T12:39:08.905Z,30.60
2022-09-07T12:44:48.523Z,29.80
2022-09-07T12:47:37.380Z,29.30
2022-09-07T12:50:31.515Z,29.20
2022-09-07T12:53:32.209Z,28.70
2022-09-07T13:00:03.293Z,28.40
2022-09-07T13:07:01.654Z,28.00
2022-09-07T13:09:44.658Z,27.60
2022-09-07T13:15:46.010Z,27.40
2022-09-07T13:18:52.872Z,27.30
2022-09-07T13:21:59.524Z,27.20
2022-09-07T13:24:55.587Z,27.00
2022-09-07T13:28:02.976Z,27.00
2022-09-07T13:30:55.334Z,27.00
2022-09-07T13:33:56.425Z,26.90
2022-09-07T13:36:47.172Z,27.30
2022-09-07T13:39:23.480Z,26.90
2022-09-07T13:42:02.763Z,27.20
2022-09-07T13:44:51.025Z,27.70
2022-09-07T13:47:32.199Z,29.30
2022-09-07T13:50:31.689Z,31.20
2022-09-07T13:53:46.212Z,33.00
2022-09-07T13:56:43.550Z,34.10
2022-09-07T13:59:30.856Z,36.00
2022-09-07T14:02:36.814Z,37.40
2022-09-07T14:05:26.212Z,38.80
2022-09-07T14:07:57.449Z,40.20
2022-09-07T14:10:49.035Z,40.40
2022-09-07T14:13:17.058Z,40.50
2022-09-07T14:15:49.681Z,40.50
2022-09-07T14:18:26.685Z,40.20
2022-09-07T14:20:59.140Z,39.70
2022-09-07T14:23:35.623Z,39.10
2022-09-07T14:26:18.815Z,38.50
2022-09-07T14:28:48.842Z,37.80
2022-09-07T14:31:21.502Z,37.30
2022-09-07T14:33:52.843Z,36.70
2022-09-07T14:36:44.209Z,36.50
2022-09-07T14:39:26.389Z,36.00
2022-09-07T14:41:57.833Z,35.20
2022-09-07T14:44:43.629Z,34.70
2022-09-07T14:47:29.788Z,34.30
2022-09-07T14:50:18.357Z,34.60
2022-09-07T14:55:48.522Z,35.40
2022-09-07T14:58:25.127Z,34.60
2022-09-07T15:03:59.865Z,33.50
2022-09-07T15:07:02.176Z,32.90
2022-09-07T15:09:38.065Z,32.50
2022-09-07T15:12:36.050Z,32.10
2022-09-07T15:15:22.084Z,31.80
2022-09-07T15:17:50.406Z,31.40
2022-09-07T15:20:40.472Z,31.20
2022-09-07T15:23:27.747Z,30.80
2022-09-07T15:25:57.960Z,30.50
2022-09-07T15:31:42.786Z,30.10
2022-09-07T15:34:24.520Z,30.00
2022-09-07T15:37:00.576Z,29.80
2022-09-07T15:39:31.381Z,29.70
2022-09-07T15:42:59.553Z,29.70
2022-09-07T15:44:51.779Z,29.60
2022-09-07T15:50:11.523Z,29.90
2022-09-07T15:52:42.751Z,30.50
2022-09-07T15:55:18.823Z,31.10
2022-09-07T15:57:59.242Z,31.90
2022-09-07T16:04:38.807Z,33.10
2022-09-07T16:10:31.799Z,34.70
2022-09-07T16:13:16.238Z,35.00
2022-09-07T16:19:41.044Z,35.20
2022-09-07T16:25:23.737Z,34.60
2022-09-07T16:28:11.963Z,34.00
2022-09-07T16:30:41.634Z,33.40
2022-09-07T16:33:37.034Z,32.70
2022-09-07T16:36:16.007Z,32.10
2022-09-07T16:38:48.385Z,31.50
2022-09-07T16:41:18.231Z,31.10
2022-09-07T16:43:47.980Z,30.60
2022-09-07T16:46:21.458Z,30.20
2022-09-07T16:49:04.306Z,29.90
2022-09-07T16:51:34.165Z,29.50
2022-09-07T16:54:03.001Z,29.10
2022-09-07T16:56:38.291Z,28.90
2022-09-07T16:59:18.452Z,28.70
2022-09-07T17:01:50.263Z,28.40
2022-09-07T17:04:20.273Z,28.20
2022-09-07T17:06:54.555Z,28.10
2022-09-07T17:09:28.673Z,27.90
2022-09-07T17:12:01.020Z,27.60
2022-09-07T17:14:30.630Z,27.40
2022-09-07T17:16:59.096Z,27.30
2022-09-07T17:19:30.530Z,27.10
2022-09-07T17:24:44.694Z,26.90
2022-09-07T17:27:16.236Z,26.70
2022-09-07T17:30:09.066Z,26.60
2022-09-07T17:32:59.229Z,26.50
2022-09-07T17:35:39.297Z,26.40
2022-09-07T17:41:54.733Z,25.90
2022-09-07T17:44:41.531Z,26.10
2022-09-07T17:47:53.392Z,25.90
2022-09-07T17:50:40.051Z,25.70
2022-09-07T17:56:15.055Z,25.70
2022-09-07T18:01:47.606Z,25.50
2022-09-07T18:04:17.286Z,25.40
2022-09-07T18:06:55.563Z,25.30
2022-09-07T18:09:31.790Z,25.40
2022-09-07T18:12:21.105Z,25.20
2022-09-07T18:15:05.990Z,25.30
2022-09-07T18:17:42.545Z,25.30
2022-09-07T18:20:19.384Z,25.20
2022-09-07T18:22:48.010Z,25.20
2022-09-07T18:25:27.963Z,25.10
2022-09-07T18:30:52.097Z,25.10
2022-09-07T18:33:25.108Z,25.00
2022-09-07T18:36:05.251Z,25.00
2022-09-07T18:38:52.845Z,24.90
2022-09-07T18:41:29.634Z,24.90
2022-09-07T18:47:06.572Z,24.90
2022-09-07T18:49:50.239Z,24.80
2022-09-07T18:52:52.123Z,24.80
2022-09-07T18:55:27.544Z,24.70
2022-09-07T18:57:59.621Z,24.70
2022-09-07T19:00:31.595Z,24.70
2022-09-07T19:03:02.486Z,24.70
2022-09-07T19:05:50.311Z,24.60
2022-09-07T19:08:28.067Z,24.60
2022-09-07T19:10:56.873Z,24.60
2022-09-07T19:13:30.017Z,24.30
2022-09-07T19:16:04.675Z,24.40
2022-09-07T19:18:36.412Z,24.40
2022-09-07T19:21:08.172Z,24.30
2022-09-07T19:23:41.677Z,24.30
2022-09-07T19:26:26.290Z,24.20
2022-09-07T19:28:57.212Z,24.00
2022-09-07T19:31:26.102Z,24.10
2022-09-07T19:33:55.989Z,24.00
2022-09-07T19:36:24.501Z,23.90
2022-09-07T19:39:04.351Z,23.80
2022-09-07T19:41:45.065Z,23.70
2022-09-07T19:44:15.544Z,23.70
2022-09-07T19:46:46.183Z,23.60
2022-09-07T19:49:14.552Z,23.50
2022-09-07T19:51:43.930Z,23.40
2022-09-07T19:54:16.250Z,23.40
2022-09-07T19:56:45.738Z,23.50
2022-09-07T19:59:14.412Z,23.20
2022-09-07T20:01:46.081Z,23.20
2022-09-07T20:04:20.325Z,23.10
2022-09-07T20:06:50.514Z,23.10
2022-09-07T20:09:20.963Z,23.00
2022-09-07T20:11:50.356Z,23.00
2022-09-07T20:14:19.913Z,23.00
2022-09-07T20:16:48.304Z,22.90
2022-09-07T20:19:17.357Z,22.90
2022-09-07T20:21:45.575Z,22.90
2022-09-07T20:24:14.537Z,22.90
2022-09-07T20:26:44.061Z,22.80
2022-09-07T20:29:28.834Z,22.80
2022-09-07T20:31:57.929Z,22.80
2022-09-07T20:34:26.802Z,22.70
2022-09-07T20:36:55.424Z,22.60
2022-09-07T20:39:27.989Z,22.60
2022-09-07T20:41:57.790Z,22.50
2022-09-07T20:44:40.331Z,22.40
2022-09-07T20:47:11.444Z,22.40
2022-09-07T20:49:53.871Z,22.40
2022-09-07T20:52:30.334Z,22.30
2022-09-07T20:55:13.536Z,22.00
2022-09-07T20:57:45.738Z,22.20
2022-09-07T21:00:15.791Z,22.10
2022-09-07T21:02:44.292Z,22.10
2022-09-07T21:05:12.588Z,22.10
2022-09-07T21:07:41.798Z,22.10
2022-09-07T21:10:10.935Z,22.00
2022-09-07T21:12:39.796Z,21.90
2022-09-07T21:15:13.102Z,21.90
2022-09-07T21:17:41.544Z,21.80
2022-09-07T21:20:10.627Z,21.80
2022-09-07T21:22:38.913Z,21.80
2022-09-07T21:25:08.078Z,22.10
2022-09-07T21:27:38.697Z,21.70
2022-09-07T21:30:08.506Z,21.70
2022-09-07T21:32:50.985Z,21.70
2022-09-07T21:35:25.991Z,21.70
2022-09-07T21:38:30.674Z,21.70
2022-09-07T21:40:59.004Z,21.70
2022-09-07T21:43:27.224Z,21.60
2022-09-07T21:45:55.389Z,21.50
2022-09-07T21:48:25.035Z,21.50
2022-09-07T21:50:57.862Z,21.40
2022-09-07T21:53:26.217Z,21.40
2022-09-07T21:55:57.343Z,21.40
2022-09-07T21:58:31.630Z,21.30
2022-09-07T22:01:04.013Z,21.20
2022-09-07T22:03:36.618Z,21.20
2022-09-07T22:06:05.323Z,21.20
2022-09-07T22:08:35.016Z,21.20
2022-09-07T22:11:08.173Z,21.20
2022-09-07T22:13:36.811Z,21.10
2022-09-07T22:16:05.709Z,21.10
2022-09-07T22:18:37.457Z,21.00
2022-09-07T22:21:08.168Z,21.20
2022-09-07T22:23:38.744Z,21.00
2022-09-07T22:26:08.087Z,21.00
2022-09-07T22:28:37.111Z,20.90
2022-09-07T22:31:14.438Z,20.90
2022-09-07T22:33:44.901Z,20.90
2022-09-07T22:36:15.866Z,20.80
2022-09-07T22:38:45.446Z,20.70
2022-09-07T22:41:16.706Z,20.60
2022-09-07T22:43:45.784Z,20.60
2022-09-07T22:46:14.903Z,20.50
2022-09-07T22:48:47.475Z,20.50
2022-09-07T22:51:18.619Z,20.60
2022-09-07T22:53:46.826Z,20.50
2022-09-07T22:56:16.821Z,20.70
2022-09-07T22:58:50.337Z,20.40
2022-09-07T23:01:23.350Z,20.40
2022-09-07T23:03:59.504Z,20.50
2022-09-07T23:06:30.037Z,20.30
2022-09-07T23:09:00.232Z,20.30
2022-09-07T23:11:29.068Z,20.30
2022-09-07T23:14:00.233Z,20.20
2022-09-07T23:16:33.488Z,20.20
2022-09-07T23:19:09.932Z,20.40
2022-09-07T23:21:38.103Z,20.20
2022-09-07T23:24:14.455Z,20.10
2022-09-07T23:26:43.716Z,20.10
2022-09-07T23:29:14.047Z,20.10
2022-09-07T23:31:45.453Z,20.10
2022-09-07T23:34:18.133Z,20.10
2022-09-07T23:36:50.191Z,20.00
2022-09-07T23:39:25.824Z,20.00
2022-09-07T23:41:56.813Z,20.00
2022-09-07T23:44:28.755Z,20.00
2022-09-07T23:46:57.039Z,19.90
2022-09-07T23:49:26.626Z,19.90
2022-09-07T23:51:57.297Z,19.90
2022-09-07T23:54:30.821Z,19.90
2022-09-07T23:57:04.193Z,19.90
2022-09-07T23:59:39.233Z,20.10
